createdAt,value
2022-09-20T00:00:13.894Z,10.44
2022-09-20T00:02:40.582Z,10.41
2022-09-20T00:05:08.509Z,10.38
2022-09-20T00:07:35.301Z,10.34
2022-09-20T00:10:02.048Z,10.28
2022-09-20T00:12:28.687Z,10.24
2022-09-20T00:14:55.494Z,10.23
2022-09-20T00:17:22.115Z,10.20
2022-09-20T00:19:48.896Z,10.17
2022-09-20T00:22:15.542Z,10.15
2022-09-20T00:24:46.768Z,10.12
2022-09-20T00:27:15.565Z,10.07
2022-09-20T00:29:42.254Z,10.04
2022-09-20T00:32:09.015Z,9.98
2022-09-20T00:34:54.371Z,9.95
2022-09-20T00:37:21.118Z,9.91
2022-09-20T00:39:47.872Z,9.90
2022-09-20T00:42:14.897Z,9.87
2022-09-20T00:44:45.501Z,9.86
2022-09-20T00:47:22.746Z,9.85
2022-09-20T00:49:49.876Z,9.87
2022-09-20T00:52:16.606Z,9.89
2022-09-20T00:54:43.336Z,9.88
2022-09-20T00:57:09.983Z,9.84
2022-09-20T00:59:38.920Z,9.81
2022-09-20T01:02:14.547Z,9.79
2022-09-20T01:04:42.151Z,9.74
2022-09-20T01:07:09.672Z,9.70
2022-09-20T01:09:36.459Z,9.63
2022-09-20T01:12:04.066Z,9.57
2022-09-20T01:14:30.786Z,9.51
2022-09-20T01:16:57.975Z,9.44
2022-09-20T01:19:29.354Z,9.37
2022-09-20T01:21:56.313Z,9.33
2022-09-20T01:24:46.950Z,9.32
2022-09-20T01:27:20.607Z,9.29
2022-09-20T01:30:06.574Z,9.29
2022-09-20T01:32:41.019Z,9.29
2022-09-20T01:35:07.875Z,9.25
2022-09-20T01:38:02.907Z,9.21
2022-09-20T01:40:48.233Z,9.18
2022-09-20T01:43:35.355Z,9.18
2022-09-20T01:46:09.598Z,9.18
2022-09-20T01:48:38.364Z,9.15
2022-09-20T01:51:26.424Z,9.12
2022-09-20T01:54:14.986Z,9.10
2022-09-20T01:56:48.806Z,9.11
2022-09-20T01:59:42.075Z,9.11
2022-09-20T02:02:24.004Z,9.12
2022-09-20T02:05:05.936Z,9.13
2022-09-20T02:07:39.070Z,9.14
2022-09-20T02:10:27.562Z,9.16
2022-09-20T02:12:59.311Z,9.18
2022-09-20T02:15:47.806Z,9.20
2022-09-20T02:18:32.641Z,9.22
2022-09-20T02:21:15.487Z,9.21
2022-09-20T02:24:08.848Z,9.18
2022-09-20T02:26:42.141Z,9.14
2022-09-20T02:29:45.461Z,9.06
2022-09-20T02:32:52.138Z,8.96
2022-09-20T02:35:40.072Z,8.90
2022-09-20T02:38:11.681Z,8.86
2022-09-20T02:41:01.946Z,8.84
2022-09-20T02:43:35.965Z,8.76
2022-09-20T02:46:23.943Z,8.68
2022-09-20T02:49:05.607Z,8.61
2022-09-20T02:51:42.350Z,8.54
2022-09-20T02:54:39.692Z,8.49
2022-09-20T02:57:26.754Z,8.50
2022-09-20T03:00:06.510Z,8.52
2022-09-20T03:02:53.449Z,8.52
2022-09-20T03:05:47.564Z,8.50
2022-09-20T03:08:37.104Z,8.51
2022-09-20T03:11:10.365Z,8.52
2022-09-20T03:13:42.827Z,8.55
2022-09-20T03:16:14.751Z,8.59
2022-09-20T03:18:57.930Z,8.61
2022-09-20T03:21:24.654Z,8.61
2022-09-20T03:24:14.430Z,8.63
2022-09-20T03:27:05.436Z,8.66
2022-09-20T03:29:47.383Z,8.66
2022-09-20T03:32:44.212Z,8.69
2022-09-20T03:35:48.304Z,8.73
2022-09-20T03:38:20.689Z,8.70
2022-09-20T03:41:06.597Z,8.68
2022-09-20T03:43:48.340Z,8.66
2022-09-20T03:46:22.016Z,8.69
2022-09-20T03:49:26.321Z,8.72
2022-09-20T03:52:17.457Z,8.74
2022-09-20T03:54:55.251Z,8.73
2022-09-20T03:57:37.747Z,8.74
2022-09-20T04:00:26.367Z,8.75
2022-09-20T04:03:30.374Z,8.75
2022-09-20T04:06:40.671Z,8.77
2022-09-20T04:09:19.640Z,8.81
2022-09-20T04:12:03.987Z,8.83
2022-09-20T04:15:11.274Z,8.83
2022-09-20T04:17:59.883Z,8.86
2022-09-20T04:20:46.529Z,8.89
2022-09-20T04:23:25.986Z,8.89
2022-09-20T04:25:52.995Z,8.90
2022-09-20T04:28:26.828Z,8.90
2022-09-20T04:30:55.413Z,8.91
2022-09-20T04:33:28.490Z,8.94
2022-09-20T04:36:22.016Z,8.99
2022-09-20T04:38:52.481Z,9.04
2022-09-20T04:41:22.801Z,9.08
2022-09-20T04:44:13.227Z,9.11
2022-09-20T04:47:11.978Z,9.14
2022-09-20T04:50:12.845Z,9.18
2022-09-20T04:53:00.596Z,9.24
2022-09-20T04:55:33.044Z,9.28
2022-09-20T04:58:23.139Z,9.30
2022-09-20T05:01:08.348Z,9.34
2022-09-20T05:04:02.841Z,9.38
2022-09-20T05:06:38.966Z,9.40
2022-09-20T05:09:13.622Z,9.44
2022-09-20T05:11:51.983Z,9.49
2022-09-20T05:14:45.139Z,9.54
2022-09-20T05:17:20.771Z,9.58
2022-09-20T05:19:51.893Z,9.63
2022-09-20T05:22:45.963Z,9.69
2022-09-20T05:25:40.026Z,9.74
2022-09-20T05:28:21.476Z,9.78
2022-09-20T05:30:50.127Z,9.83
2022-09-20T05:33:25.967Z,9.85
2022-09-20T05:36:24.819Z,9.87
2022-09-20T05:39:03.482Z,9.93
2022-09-20T05:42:03.179Z,9.97
2022-09-20T05:44:43.194Z,10.02
2022-09-20T05:47:15.696Z,10.06
2022-09-20T05:49:59.099Z,10.11
2022-09-20T05:52:50.044Z,10.17
2022-09-20T05:55:28.866Z,10.22
2022-09-20T05:58:07.408Z,10.26
2022-09-20T06:00:43.170Z,10.31
2022-09-20T06:03:30.890Z,10.36
2022-09-20T06:06:22.693Z,10.39
2022-09-20T06:08:58.258Z,10.43
2022-09-20T06:12:02.267Z,10.45
2022-09-20T06:14:38.103Z,10.48
2022-09-20T06:17:16.562Z,10.48
2022-09-20T06:20:20.583Z,10.49
2022-09-20T06:22:49.851Z,10.51
2022-09-20T06:25:34.395Z,10.54
2022-09-20T06:28:13.341Z,10.57
2022-09-20T06:30:43.411Z,10.58
2022-09-20T06:33:17.825Z,10.57
2022-09-20T06:36:32.271Z,10.58
2022-09-20T06:39:32.856Z,10.59
2022-09-20T06:42:00.241Z,10.62
2022-09-20T06:44:27.070Z,10.67
2022-09-20T06:46:54.346Z,10.71
2022-09-20T06:49:21.749Z,10.73
2022-09-20T06:51:50.770Z,10.76
2022-09-20T06:54:18.597Z,10.81
2022-09-20T06:56:45.544Z,10.84
2022-09-20T06:59:12.853Z,10.87
2022-09-20T07:01:39.942Z,10.88
2022-09-20T07:04:06.711Z,10.90
2022-09-20T07:06:33.549Z,10.92
2022-09-20T07:09:00.257Z,10.93
2022-09-20T07:11:26.944Z,10.93
2022-09-20T07:13:55.274Z,10.92
2022-09-20T07:16:22.066Z,10.93
2022-09-20T07:18:48.813Z,10.94
2022-09-20T07:21:16.720Z,10.96
2022-09-20T07:23:45.852Z,10.98
2022-09-20T07:26:19.707Z,10.99
2022-09-20T07:28:46.494Z,11.01
2022-09-20T07:31:13.120Z,11.03
2022-09-20T07:33:40.192Z,11.05
2022-09-20T07:36:07.247Z,11.05
2022-09-20T07:38:34.028Z,11.05
2022-09-20T07:41:02.368Z,11.07
2022-09-20T07:43:30.458Z,11.07
2022-09-20T07:45:59.263Z,11.08
2022-09-20T07:48:34.577Z,11.08
2022-09-20T07:51:08.962Z,11.11
2022-09-20T07:53:36.852Z,11.10
2022-09-20T07:56:11.269Z,11.08
2022-09-20T07:58:37.999Z,11.07
2022-09-20T08:01:14.340Z,11.09
2022-09-20T08:03:42.885Z,11.11
2022-09-20T08:06:11.016Z,11.13
2022-09-20T08:08:39.065Z,11.15
2022-09-20T08:11:14.125Z,11.17
2022-09-20T08:16:29.410Z,11.23
2022-09-20T08:18:57.797Z,11.26
2022-09-20T08:21:26.297Z,11.30
2022-09-20T08:23:53.501Z,11.33
2022-09-20T08:26:22.689Z,11.38
2022-09-20T08:28:54.962Z,11.39
2022-09-20T08:31:23.894Z,11.41
2022-09-20T08:33:51.390Z,11.41
2022-09-20T08:36:19.823Z,11.40
2022-09-20T08:41:38.932Z,11.42
2022-09-20T08:44:25.207Z,11.46
2022-09-20T08:47:06.911Z,11.49
2022-09-20T08:49:33.661Z,11.51
2022-09-20T08:52:00.409Z,11.54
2022-09-20T08:54:32.219Z,11.55
2022-09-20T08:57:10.615Z,11.56
2022-09-20T08:59:37.324Z,11.60
2022-09-20T09:02:04.006Z,11.62
2022-09-20T09:04:35.277Z,11.64
2022-09-20T09:07:02.716Z,11.66
2022-09-20T09:09:29.634Z,11.70
2022-09-20T09:11:56.902Z,11.73
2022-09-20T09:14:49.614Z,11.75
2022-09-20T09:17:18.181Z,11.77
2022-09-20T09:19:55.930Z,11.79
2022-09-20T09:22:32.783Z,11.82
2022-09-20T09:25:14.686Z,11.84
2022-09-20T09:27:58.081Z,11.87
2022-09-20T09:30:30.294Z,11.88
2022-09-20T09:33:20.832Z,11.89
2022-09-20T09:36:03.753Z,11.90
2022-09-20T09:38:32.117Z,11.87
2022-09-20T09:41:00.672Z,11.86
2022-09-20T09:43:30.117Z,11.83
2022-09-20T09:46:15.675Z,11.79
2022-09-20T09:48:42.454Z,11.76
2022-09-20T09:51:10.486Z,11.75
2022-09-20T09:53:37.956Z,11.74
2022-09-20T09:56:14.331Z,11.73
2022-09-20T09:58:56.255Z,11.75
2022-09-20T10:01:33.182Z,11.77
2022-09-20T10:04:15.758Z,11.79
2022-09-20T10:06:52.440Z,11.80
2022-09-20T10:09:32.591Z,11.79
2022-09-20T10:12:08.103Z,11.75
2022-09-20T10:14:48.499Z,11.69
2022-09-20T10:17:47.175Z,11.65
2022-09-20T10:20:31.326Z,11.64
2022-09-20T10:26:24.925Z,11.67
2022-09-20T10:28:57.845Z,11.69
2022-09-20T10:31:52.389Z,11.75
2022-09-20T10:34:46.599Z,11.80
2022-09-20T10:37:23.598Z,11.82
2022-09-20T10:39:58.767Z,11.81
2022-09-20T10:42:59.621Z,11.79
2022-09-20T10:46:30.859Z,11.75
2022-09-20T10:49:24.296Z,11.68
2022-09-20T10:51:55.493Z,11.62
2022-09-20T10:54:55.324Z,11.57
2022-09-20T10:57:47.007Z,11.48
2022-09-20T11:00:21.480Z,11.44
2022-09-20T11:03:06.894Z,11.43
2022-09-20T11:06:02.022Z,11.40
2022-09-20T11:08:32.503Z,11.36
2022-09-20T11:11:00.535Z,11.34
2022-09-20T11:13:56.655Z,11.33
2022-09-20T11:16:41.802Z,11.32
2022-09-20T11:19:37.355Z,11.31
2022-09-20T11:22:13.239Z,11.29
2022-09-20T11:24:46.371Z,11.28
2022-09-20T11:27:18.689Z,11.28
2022-09-20T11:29:50.221Z,11.26
2022-09-20T11:32:22.662Z,11.24
2022-09-20T11:34:56.337Z,11.23
2022-09-20T11:37:24.488Z,11.22
2022-09-20T11:39:55.187Z,11.21
2022-09-20T11:42:27.279Z,11.17
2022-09-20T11:44:54.215Z,11.14
2022-09-20T11:50:35.358Z,11.10
2022-09-20T11:53:27.563Z,11.07
2022-09-20T11:56:21.007Z,11.06
2022-09-20T11:58:52.947Z,11.03
2022-09-20T12:01:28.865Z,11.00
2022-09-20T12:04:32.522Z,10.97
2022-09-20T12:07:18.131Z,10.96
2022-09-20T12:09:59.180Z,10.96
2022-09-20T12:12:28.401Z,10.96
2022-09-20T12:14:55.795Z,10.97
2022-09-20T12:17:44.416Z,10.99
2022-09-20T12:20:33.060Z,10.99
2022-09-20T12:23:37.721Z,10.98
2022-09-20T12:26:09.101Z,11.01
2022-09-20T12:28:49.905Z,11.03
2022-09-20T12:31:23.013Z,11.05
2022-09-20T12:34:13.243Z,11.06
2022-09-20T12:36:43.209Z,11.07
2022-09-20T12:39:15.294Z,11.07
2022-09-20T12:41:50.338Z,11.09
2022-09-20T12:44:32.177Z,11.12
2022-09-20T12:47:02.948Z,11.14
2022-09-20T12:49:48.374Z,11.16
2022-09-20T12:52:45.347Z,11.17
2022-09-20T12:55:13.228Z,11.18
2022-09-20T12:57:40.851Z,11.19
2022-09-20T13:00:08.370Z,11.17
2022-09-20T13:02:52.047Z,11.15
2022-09-20T13:05:48.439Z,11.09
2022-09-20T13:08:22.887Z,11.04
2022-09-20T13:10:55.323Z,11.03
2022-09-20T13:13:28.233Z,11.02
2022-09-20T13:15:54.983Z,11.01
2022-09-20T13:18:22.211Z,11.02
2022-09-20T13:20:48.916Z,11.02
2022-09-20T13:23:17.852Z,11.02
2022-09-20T13:25:44.551Z,11.00
2022-09-20T13:28:30.058Z,10.99
2022-09-20T13:31:21.718Z,10.98
2022-09-20T13:33:48.563Z,10.98
2022-09-20T13:36:15.198Z,10.98
2022-09-20T13:38:41.942Z,10.96
2022-09-20T13:41:10.538Z,10.92
2022-09-20T13:43:44.405Z,10.90
2022-09-20T13:46:16.448Z,10.88
2022-09-20T13:48:46.189Z,10.87
2022-09-20T13:51:20.528Z,10.86
2022-09-20T13:53:47.677Z,10.85
2022-09-20T13:56:27.406Z,10.85
2022-09-20T13:58:54.359Z,10.85
2022-09-20T14:01:24.435Z,10.86
2022-09-20T14:03:51.183Z,10.86
2022-09-20T14:06:17.812Z,10.86
2022-09-20T14:08:46.268Z,10.83
2022-09-20T14:11:16.343Z,10.83
2022-09-20T14:13:44.467Z,10.85
2022-09-20T14:16:11.217Z,10.87
2022-09-20T14:18:38.885Z,10.87
2022-09-20T14:21:07.794Z,10.88
2022-09-20T14:23:52.398Z,10.88
2022-09-20T14:26:25.694Z,10.87
2022-09-20T14:28:52.462Z,10.88
2022-09-20T14:31:23.821Z,10.88
2022-09-20T14:33:55.625Z,10.87
2022-09-20T14:36:32.085Z,10.88
2022-09-20T14:39:06.688Z,10.89
2022-09-20T14:41:38.950Z,10.89
2022-09-20T14:44:06.929Z,10.90
2022-09-20T14:46:35.892Z,10.90
2022-09-20T14:49:21.331Z,10.88
2022-09-20T14:51:48.634Z,10.87
2022-09-20T14:54:27.510Z,10.86
2022-09-20T14:56:54.611Z,10.86
2022-09-20T14:59:27.816Z,10.84
2022-09-20T15:02:05.651Z,10.82
2022-09-20T15:04:33.018Z,10.82
2022-09-20T15:07:07.235Z,10.82
2022-09-20T15:09:35.173Z,10.80
2022-09-20T15:12:16.341Z,10.79
2022-09-20T15:14:43.129Z,10.78
2022-09-20T15:17:17.367Z,10.77
2022-09-20T15:19:44.930Z,10.75
2022-09-20T15:22:11.851Z,10.74
2022-09-20T15:24:38.708Z,10.73
2022-09-20T15:27:05.435Z,10.72
2022-09-20T15:29:32.060Z,10.72
2022-09-20T15:31:58.797Z,10.72
2022-09-20T15:34:25.583Z,10.70
2022-09-20T15:36:53.924Z,10.69
2022-09-20T15:39:22.337Z,10.68
2022-09-20T15:41:52.091Z,10.68
2022-09-20T15:44:18.900Z,10.69
2022-09-20T15:46:45.517Z,10.67
2022-09-20T15:49:12.447Z,10.67
2022-09-20T15:51:39.345Z,10.65
2022-09-20T15:54:07.636Z,10.63
2022-09-20T15:56:36.161Z,10.65
2022-09-20T15:59:04.951Z,10.68
2022-09-20T16:01:39.829Z,10.68
2022-09-20T16:04:08.144Z,10.68
2022-09-20T16:06:34.934Z,10.69
2022-09-20T16:09:01.695Z,10.68
2022-09-20T16:11:28.415Z,10.68
2022-09-20T16:13:55.567Z,10.67
2022-09-20T16:16:22.572Z,10.66
2022-09-20T16:19:08.010Z,10.63
2022-09-20T16:21:35.192Z,10.62
2022-09-20T16:24:02.139Z,10.59
2022-09-20T16:26:29.170Z,10.58
2022-09-20T16:28:55.918Z,10.57
2022-09-20T16:31:29.520Z,10.55
2022-09-20T16:33:57.035Z,10.52
2022-09-20T16:36:27.742Z,10.50
2022-09-20T16:38:55.350Z,10.48
2022-09-20T16:41:26.045Z,10.48
2022-09-20T16:43:53.081Z,10.48
2022-09-20T16:46:20.862Z,10.48
2022-09-20T16:48:48.063Z,10.48
2022-09-20T16:51:14.993Z,10.47
2022-09-20T16:53:41.939Z,10.46
2022-09-20T16:56:08.702Z,10.46
2022-09-20T16:58:36.277Z,10.46
2022-09-20T17:01:06.840Z,10.44
2022-09-20T17:03:34.165Z,10.44
2022-09-20T17:06:05.359Z,10.44
2022-09-20T17:08:41.454Z,10.45
2022-09-20T17:11:15.734Z,10.45
2022-09-20T17:13:43.750Z,10.46
2022-09-20T17:16:12.037Z,10.47
2022-09-20T17:18:41.929Z,10.50
2022-09-20T17:21:15.056Z,10.50
2022-09-20T17:23:44.067Z,10.51
2022-09-20T17:26:14.927Z,10.51
2022-09-20T17:28:49.320Z,10.49
2022-09-20T17:31:17.224Z,10.47
2022-09-20T17:33:45.007Z,10.43
2022-09-20T17:36:16.444Z,10.39
2022-09-20T17:38:43.270Z,10.36
2022-09-20T17:41:14.902Z,10.33
2022-09-20T17:43:42.299Z,10.31
2022-09-20T17:46:22.775Z,10.32
2022-09-20T17:48:56.058Z,10.33
2022-09-20T17:51:24.642Z,10.34
2022-09-20T17:53:51.766Z,10.31
2022-09-20T17:56:18.543Z,10.25
2022-09-20T17:58:45.171Z,10.23
2022-09-20T18:01:16.859Z,10.22
2022-09-20T18:03:49.023Z,10.19
2022-09-20T18:06:20.953Z,10.15
2022-09-20T18:08:49.189Z,10.12
2022-09-20T18:11:18.121Z,10.11
2022-09-20T18:13:44.839Z,10.08
2022-09-20T18:16:11.881Z,10.05
2022-09-20T18:18:39.882Z,10.02
2022-09-20T18:21:11.772Z,9.98
2022-09-20T18:23:38.574Z,9.92
2022-09-20T18:26:24.152Z,9.86
2022-09-20T18:29:07.766Z,9.84
2022-09-20T18:31:38.976Z,9.81
2022-09-20T18:34:06.953Z,9.79
2022-09-20T18:36:36.178Z,9.79
2022-09-20T18:39:03.489Z,9.79
2022-09-20T18:41:32.921Z,9.79
2022-09-20T18:44:00.849Z,9.77
2022-09-20T18:46:29.239Z,9.77
2022-09-20T18:48:57.299Z,9.79
2022-09-20T18:51:25.133Z,9.81
2022-09-20T18:53:52.857Z,9.82
2022-09-20T18:56:19.846Z,9.84
2022-09-20T18:58:47.440Z,9.85
2022-09-20T19:01:57.879Z,9.83
2022-09-20T19:05:06.793Z,9.82
2022-09-20T19:08:00.629Z,9.83
2022-09-20T19:11:08.080Z,9.86
2022-09-20T19:13:43.083Z,9.91
2022-09-20T19:16:18.570Z,9.93
2022-09-20T19:19:00.246Z,9.95
2022-09-20T19:21:45.491Z,9.96
2022-09-20T19:24:38.092Z,9.98
2022-09-20T19:27:05.089Z,10.00
2022-09-20T19:29:33.253Z,10.01
2022-09-20T19:32:00.793Z,10.01
2022-09-20T19:34:32.044Z,10.00
2022-09-20T19:37:36.886Z,10.01
2022-09-20T19:40:25.272Z,10.02
2022-09-20T19:43:09.042Z,10.03
2022-09-20T19:45:51.219Z,10.03
2022-09-20T19:48:29.847Z,10.03
2022-09-20T19:50:56.579Z,10.04
2022-09-20T19:53:24.347Z,10.04
2022-09-20T19:55:56.906Z,10.03
2022-09-20T19:58:23.955Z,10.02
2022-09-20T20:00:50.947Z,10.00
2022-09-20T20:03:17.943Z,9.98
2022-09-20T20:06:40.258Z,9.95
2022-09-20T20:09:10.709Z,9.92
2022-09-20T20:12:29.709Z,9.91
2022-09-20T20:15:16.169Z,9.90
2022-09-20T20:17:51.673Z,9.89
2022-09-20T20:20:20.197Z,9.89
2022-09-20T20:23:11.612Z,9.91
2022-09-20T20:25:47.383Z,9.92
2022-09-20T20:28:14.203Z,9.94
2022-09-20T20:30:40.892Z,9.96
2022-09-20T20:33:08.126Z,9.97
2022-09-20T20:35:34.917Z,9.97
2022-09-20T20:38:01.579Z,9.97
2022-09-20T20:40:28.437Z,9.98
2022-09-20T20:43:00.348Z,10.00
2022-09-20T20:45:27.049Z,10.03
2022-09-20T20:47:56.909Z,10.04
2022-09-20T20:50:23.692Z,10.06
2022-09-20T20:52:54.250Z,10.06
2022-09-20T20:55:21.087Z,10.07
2022-09-20T20:57:58.067Z,10.06
2022-09-20T21:00:25.711Z,10.04
2022-09-20T21:03:01.818Z,10.02
2022-09-20T21:05:29.124Z,10.00
2022-09-20T21:07:56.414Z,9.98
2022-09-20T21:10:23.757Z,9.95
2022-09-20T21:12:53.174Z,9.90
2022-09-20T21:15:20.118Z,9.87
2022-09-20T21:17:53.692Z,9.83
2022-09-20T21:20:21.392Z,9.77
2022-09-20T21:22:48.154Z,9.71
2022-09-20T21:25:14.870Z,9.65
2022-09-20T21:27:42.171Z,9.60
2022-09-20T21:30:09.265Z,9.56
2022-09-20T21:32:36.574Z,9.52
2022-09-20T21:35:03.514Z,9.49
2022-09-20T21:37:30.566Z,9.48
2022-09-20T21:39:57.274Z,9.49
2022-09-20T21:42:25.506Z,9.49
2022-09-20T21:44:52.524Z,9.48
2022-09-20T21:47:20.572Z,9.46
2022-09-20T21:49:47.695Z,9.44
2022-09-20T21:52:14.415Z,9.44
2022-09-20T21:54:41.045Z,9.44
2022-09-20T21:57:07.978Z,9.44
2022-09-20T21:59:34.680Z,9.43
2022-09-20T22:02:01.308Z,9.43
2022-09-20T22:04:29.188Z,9.43
2022-09-20T22:06:55.923Z,9.42
2022-09-20T22:09:24.147Z,9.41
2022-09-20T22:11:50.910Z,9.40
2022-09-20T22:14:19.750Z,9.38
2022-09-20T22:16:47.346Z,9.39
2022-09-20T22:19:16.490Z,9.39
2022-09-20T22:21:44.939Z,9.39
2022-09-20T22:24:12.324Z,9.40
2022-09-20T22:26:50.012Z,9.42
2022-09-20T22:29:17.076Z,9.42
2022-09-20T22:31:45.581Z,9.41
2022-09-20T22:34:20.218Z,9.43
2022-09-20T22:36:47.110Z,9.44
2022-09-20T22:39:14.243Z,9.44
2022-09-20T22:41:41.369Z,9.45
2022-09-20T22:44:08.171Z,9.47
2022-09-20T22:46:34.896Z,9.48
2022-09-20T22:49:01.711Z,9.48
2022-09-20T22:51:29.159Z,9.49
2022-09-20T22:53:55.882Z,9.49
2022-09-20T22:56:24.685Z,9.49
2022-09-20T22:58:52.878Z,9.49
2022-09-20T23:01:24.026Z,9.48
2022-09-20T23:03:56.127Z,9.48
2022-09-20T23:06:25.632Z,9.46
2022-09-20T23:08:52.934Z,9.46
2022-09-20T23:11:19.889Z,9.46
2022-09-20T23:13:46.805Z,9.48
2022-09-20T23:16:21.324Z,9.49
2022-09-20T23:18:48.838Z,9.48
2022-09-20T23:21:15.847Z,9.47
2022-09-20T23:23:43.411Z,9.46
2022-09-20T23:26:17.875Z,9.46
2022-09-20T23:28:46.483Z,9.46
2022-09-20T23:31:14.915Z,9.47
2022-09-20T23:33:48.858Z,9.48
2022-09-20T23:36:18.473Z,9.48
2022-09-20T23:38:45.460Z,9.48
2022-09-20T23:41:13.789Z,9.49
2022-09-20T23:43:40.798Z,9.49
2022-09-20T23:46:07.791Z,9.49
2022-09-20T23:48:36.352Z,9.47
2022-09-20T23:51:04.037Z,9.47
2022-09-20T23:53:30.785Z,9.46
2022-09-20T23:55:57.401Z,9.45
2022-09-20T23:58:24.177Z,9.44
